Time;durP1;ratioP1;P1;durP2;ratioP2;P2;SDS_P1;SDS_P2;PMS_P1;PMS_P2;Temp;Humidity;BMP_temperature;BMP_pressure;BME280_temperature;BME280_humidity;BME280_pressure;Samples;Min_cycle;Max_cycle;Signal;HPM_P1;HPM_P2
2021/10/28 00:14:30;;;;;;;65.28;37.08;;;;;;;4.47;78.87;101548.95;1773123;80;21410;-54
2021/10/28 00:18:13;;;;;;;61.65;36.53;;;;;;;4.42;78.73;101558.73;1773280;80;21387;-53
2021/10/28 00:20:52;;;;;;;72.65;38.08;;;;;;;4.40;78.74;101547.16;1772229;80;21335;-53
2021/10/28 00:23:59;;;;;;;63.15;37.35;;;;;;;4.39;78.68;101539.98;1772751;80;21193;-54
2021/10/28 00:27:02;;;;;;;69.65;38.53;;;;;;;4.34;78.55;101539.43;1772563;80;21867;-54
2021/10/28 00:30:07;;;;;;;72.47;39.73;;;;;;;4.32;78.67;101533.75;1772097;79;21228;-54
2021/10/28 00:33:13;;;;;;;68.95;37.20;;;;;;;4.31;78.74;101534.23;1772824;80;21327;-54
2021/10/28 00:36:19;;;;;;;78.02;37.40;;;;;;;4.29;78.69;101539.39;1773068;80;21400;-53
2021/10/28 00:39:24;;;;;;;65.70;36.33;;;;;;;4.26;78.65;101536.42;1773018;80;21729;-53
2021/10/28 00:42:29;;;;;;;73.72;36.40;;;;;;;4.23;78.53;101528.98;1773283;80;21344;-53
2021/10/28 00:45:40;;;;;;;66.90;35.58;;;;;;;4.21;78.59;101531.81;1773136;80;21221;-55
2021/10/28 00:48:44;;;;;;;65.37;37.05;;;;;;;4.21;78.56;101537.23;1773348;80;21196;-53
2021/10/28 00:51:50;;;;;;;65.75;35.13;;;;;;;4.22;78.62;101528.11;1773045;80;21379;-53
2021/10/28 00:54:55;;;;;;;64.72;34.35;;;;;;;4.25;78.73;101533.31;1773878;80;21339;-53
2021/10/28 00:58:02;;;;;;;63.13;33.25;;;;;;;4.26;78.73;101535.06;1773375;79;21350;-53
2021/10/28 01:01:11;;;;;;;68.72;31.42;;;;;;;4.29;78.70;101542.98;1773291;80;21844;-54
2021/10/28 01:04:17;;;;;;;61.95;30.20;;;;;;;4.29;78.58;101532.14;1773183;80;21785;-53
2021/10/28 01:07:23;;;;;;;58.90;30.75;;;;;;;4.31;78.52;101542.36;1773115;80;21383;-54
2021/10/28 01:10:28;;;;;;;60.48;31.85;;;;;;;4.31;78.36;101525.25;1772994;80;21359;-53
2021/10/28 01:13:35;;;;;;;56.50;31.77;;;;;;;4.30;78.28;101518.95;1774166;80;21805;-53
2021/10/28 01:16:41;;;;;;;52.95;30.65;;;;;;;4.27;78.15;101531.84;1773293;80;21406;-53
2021/10/28 01:19:47;;;;;;;50.70;30.05;;;;;;;4.27;78.25;101529.14;1773059;80;21332;-54
2021/10/28 01:22:54;;;;;;;51.25;30.05;;;;;;;4.29;78.31;101526.72;1773233;80;21789;-54
2021/10/28 01:26:02;;;;;;;54.75;29.18;;;;;;;4.29;78.14;101528.08;1773029;80;21375;-54
2021/10/28 01:29:08;;;;;;;53.98;29.37;;;;;;;4.31;78.28;101534.73;1773050;79;21259;-54
2021/10/28 01:32:16;;;;;;;56.42;31.40;;;;;;;4.33;78.34;101531.41;1771544;79;21332;-54
2021/10/28 01:35:21;;;;;;;49.73;29.42;;;;;;;4.35;78.19;101531.70;1771107;80;21196;-53
2021/10/28 01:38:26;;;;;;;54.13;29.82;;;;;;;4.36;78.15;101526.64;1772262;80;21179;-54
2021/10/28 01:41:35;;;;;;;58.70;29.87;;;;;;;4.39;78.43;101529.14;1771181;80;21185;-55
2021/10/28 01:44:41;;;;;;;53.20;32.17;;;;;;;4.41;78.48;101527.67;1771608;80;21224;-53
2021/10/28 01:47:47;;;;;;;52.62;30.72;;;;;;;4.42;78.64;101527.56;1771529;79;21312;-53
2021/10/28 01:50:52;;;;;;;53.70;31.02;;;;;;;4.42;78.79;101523.49;1771368;80;21245;-53
2021/10/28 01:53:58;;;;;;;44.60;29.12;;;;;;;4.37;78.71;101521.63;1771607;80;21173;-53
2021/10/28 01:57:03;;;;;;;54.35;30.62;;;;;;;4.32;78.79;101527.86;1771578;80;21224;-53
2021/10/28 02:00:25;;;;;;;48.63;29.18;;;;;;;4.29;78.84;101524.48;1763892;80;21307;-53
2021/10/28 02:03:31;;;;;;;48.13;28.85;;;;;;;4.24;78.77;101530.71;1771218;80;21221;-54
2021/10/28 02:06:36;;;;;;;48.35;28.10;;;;;;;4.18;78.71;101529.80;1771242;81;21280;-53
2021/10/28 02:09:43;;;;;;;52.88;28.70;;;;;;;4.13;78.77;101520.63;1771496;80;21739;-54
2021/10/28 02:12:49;;;;;;;52.88;28.92;;;;;;;4.11;78.84;101529.35;1771394;81;21174;-54
2021/10/28 02:15:55;;;;;;;50.63;28.70;;;;;;;4.08;78.83;101529.56;1771580;80;21204;-54
2021/10/28 02:19:00;;;;;;;54.25;29.95;;;;;;;4.05;78.77;101535.20;1772242;80;21177;-54
2021/10/28 02:22:05;;;;;;;50.05;29.20;;;;;;;4.01;78.66;101543.14;1771203;80;21189;-54
2021/10/28 02:25:12;;;;;;;55.80;27.67;;;;;;;3.94;78.53;101538.27;1771977;80;21193;-53
2021/10/28 02:28:20;;;;;;;51.05;27.98;;;;;;;3.84;78.24;101547.50;1771385;80;21224;-55
2021/10/28 02:31:26;;;;;;;47.67;28.55;;;;;;;3.77;78.50;101545.33;1771658;80;21259;-52
2021/10/28 02:34:32;;;;;;;46.80;27.02;;;;;;;3.73;78.73;101546.48;1769958;79;21248;-53
2021/10/28 02:37:40;;;;;;;50.45;28.15;;;;;;;3.68;78.72;101543.25;1771507;81;21201;-53
2021/10/28 02:40:45;;;;;;;47.55;29.05;;;;;;;3.63;78.83;101542.19;1771323;81;21240;-54
2021/10/28 02:43:50;;;;;;;56.18;29.85;;;;;;;3.61;78.96;101546.86;1771602;80;21177;-54
2021/10/28 02:46:59;;;;;;;47.65;31.00;;;;;;;3.58;78.96;101556.55;1771271;80;21202;-54
2021/10/28 02:50:05;;;;;;;51.70;30.82;;;;;;;3.59;79.20;101548.79;1771613;80;21315;-53
2021/10/28 02:53:11;;;;;;;51.33;30.65;;;;;;;3.61;79.35;101540.56;1771438;81;21287;-54
2021/10/28 02:56:17;;;;;;;54.75;32.53;;;;;;;3.60;79.30;101535.63;1771408;81;21196;-53
2021/10/28 02:59:23;;;;;;;64.15;34.83;;;;;;;3.59;79.26;101546.56;1771307;79;21185;-53
2021/10/28 03:02:30;;;;;;;80.75;46.02;;;;;;;3.57;79.34;101547.17;1771717;80;21228;-54
2021/10/28 03:05:36;;;;;;;79.20;41.02;;;;;;;3.53;79.43;101545.15;1771333;80;21216;-57
2021/10/28 03:08:41;;;;;;;70.92;40.60;;;;;;;3.49;79.51;101551.72;1771449;80;21252;-56
2021/10/28 03:11:48;;;;;;;64.17;36.73;;;;;;;3.44;79.53;101551.66;1771351;81;21260;-56
2021/10/28 03:14:57;;;;;;;64.47;38.33;;;;;;;3.39;79.48;101547.91;1771667;80;21201;-56
2021/10/28 03:19:17;;;;;;;69.40;38.30;;;;;;;3.30;79.29;101555.27;1771794;80;21722;-57
2021/10/28 03:28:11;;;;;;;65.17;37.35;;;;;;;3.15;79.36;101574.34;1771841;80;21189;-58
2021/10/28 03:31:17;;;;;;;80.10;40.03;;;;;;;3.10;79.45;101569.23;1771192;80;21272;-57
2021/10/28 03:34:24;;;;;;;81.78;39.53;;;;;;;3.10;79.82;101571.94;1761953;80;21367;-56
2021/10/28 03:37:34;;;;;;;70.25;36.17;;;;;;;3.07;79.77;101565.38;1771526;80;21312;-56
2021/10/28 03:41:09;;;;;;;62.00;35.03;;;;;;;2.98;79.44;101561.42;1771371;81;21229;-56
2021/10/28 03:44:13;;;;;;;54.73;31.02;;;;;;;2.91;79.43;101561.45;1771383;81;21189;-56
2021/10/28 03:54:03;;;;;;;50.40;30.40;;;;;;;2.94;80.58;101564.43;1771819;80;21247;-56
2021/10/28 04:16:59;;;;;;;46.05;30.85;;;;;;;2.87;80.65;101535.56;1735132;82;21234;-56
2021/10/28 04:29:52;;;;;;;64.37;34.38;;;;;;;3.09;82.21;101544.52;1740929;82;21210;-56
2021/10/28 04:32:58;;;;;;;71.35;35.83;;;;;;;3.16;82.49;101551.72;1740564;82;21384;-56
2021/10/28 04:36:03;;;;;;;115.45;48.75;;;;;;;3.21;82.67;101554.53;1739599;80;21357;-56
2021/10/28 04:39:15;;;;;;;97.55;51.30;;;;;;;3.26;82.83;101559.63;1741309;81;21187;-57
2021/10/28 04:42:19;;;;;;;86.47;48.00;;;;;;;3.32;82.94;101565.52;1770336;80;21204;-58
2021/10/28 04:45:24;;;;;;;88.67;46.88;;;;;;;3.35;83.13;101561.72;1768709;80;21277;-56
2021/10/28 04:48:29;;;;;;;76.97;42.55;;;;;;;3.40;83.38;101567.23;1765414;80;21207;-56
2021/10/28 04:51:35;;;;;;;74.17;40.75;;;;;;;3.47;83.57;101573.98;1771009;80;21801;-56
2021/10/28 04:54:42;;;;;;;60.65;37.58;;;;;;;3.54;83.68;101582.06;1767050;80;21208;-56
2021/10/28 04:57:48;;;;;;;66.33;35.68;;;;;;;3.62;83.79;101578.84;1764300;81;21180;-57
2021/10/28 05:00:54;;;;;;;59.38;36.85;;;;;;;3.70;83.86;101586.84;1758126;80;21565;-57
2021/10/28 05:04:00;;;;;;;57.35;34.30;;;;;;;3.78;83.88;101566.89;1738405;82;21246;-55
2021/10/28 05:07:05;;;;;;;64.07;37.13;;;;;;;3.88;83.92;101557.17;1743433;81;21560;-56
2021/10/28 05:10:12;;;;;;;62.08;39.08;;;;;;;3.94;83.96;101573.48;1759375;80;21193;-58
2021/10/28 05:13:19;;;;;;;81.28;47.33;;;;;;;4.01;84.04;101566.17;1767833;81;21756;-57
2021/10/28 05:16:25;;;;;;;87.92;54.30;;;;;;;4.05;84.12;101576.31;1753848;79;21718;-56
2021/10/28 05:19:37;;;;;;;93.40;58.48;;;;;;;4.09;84.18;101569.22;1765060;81;21244;-56
2021/10/28 05:22:41;;;;;;;85.50;49.25;;;;;;;4.15;84.27;101567.95;1768055;80;21574;-57
2021/10/28 05:25:49;;;;;;;112.97;69.72;;;;;;;4.21;84.29;101552.13;1728228;82;21209;-57
2021/10/28 05:28:56;;;;;;;77.60;47.55;;;;;;;4.31;84.37;101539.66;1739830;82;21698;-58
2021/10/28 05:32:01;;;;;;;101.02;65.52;;;;;;;4.40;84.44;101550.34;1760296;80;21196;-56
2021/10/28 05:35:11;;;;;;;93.58;59.50;;;;;;;4.47;84.48;101561.15;1767615;80;21711;-57
2021/10/28 05:38:18;;;;;;;84.58;51.68;;;;;;;4.53;84.49;101564.78;1770318;78;21582;-58
2021/10/28 05:41:23;;;;;;;65.25;43.13;;;;;;;4.59;84.49;101565.22;1768878;80;21796;-58
2021/10/28 05:44:28;;;;;;;69.10;44.55;;;;;;;4.68;84.45;101564.18;1769697;80;21184;-58
2021/10/28 05:47:35;;;;;;;77.35;53.33;;;;;;;4.74;84.38;101568.65;1770611;80;21586;-58
2021/10/28 05:50:42;;;;;;;79.80;52.80;;;;;;;4.83;84.33;101567.13;1768090;80;21215;-58
2021/10/28 05:53:49;;;;;;;56.10;37.45;;;;;;;4.89;84.24;101570.27;1738692;82;21279;-58
2021/10/28 05:56:54;;;;;;;54.15;34.35;;;;;;;4.96;84.21;101559.84;1754441;80;21240;-57
2021/10/28 06:00:01;;;;;;;60.95;40.52;;;;;;;5.05;84.18;101574.09;1769757;81;21200;-57
2021/10/28 06:03:12;;;;;;;61.45;39.58;;;;;;;5.12;84.23;101558.59;1764704;80;21256;-58
2021/10/28 06:06:18;;;;;;;66.92;37.70;;;;;;;5.21;84.24;101564.73;1771186;80;21390;-58
2021/10/28 06:09:22;;;;;;;60.90;42.55;;;;;;;5.32;84.37;101564.80;1769234;80;21778;-57
2021/10/28 06:12:32;;;;;;;75.95;52.73;;;;;;;5.44;84.42;101572.54;1749996;81;21232;-57
2021/10/28 06:15:36;;;;;;;66.15;42.73;;;;;;;5.52;84.46;101570.96;1756595;81;21181;-58
2021/10/28 06:18:42;;;;;;;66.57;41.48;;;;;;;5.62;84.46;101573.86;1744596;81;21717;-60
2021/10/28 06:21:49;;;;;;;60.17;40.12;;;;;;;5.70;84.48;101575.03;1734353;82;21247;-57
2021/10/28 06:24:55;;;;;;;53.45;34.43;;;;;;;5.78;84.42;101556.30;1749838;81;21820;-57
2021/10/28 06:28:00;;;;;;;52.62;33.55;;;;;;;5.88;84.33;101559.22;1764315;80;21745;-58
2021/10/28 06:31:05;;;;;;;53.58;32.98;;;;;;;5.97;84.31;101563.93;1760995;81;21219;-57
2021/10/28 06:34:18;;;;;;;60.63;34.90;;;;;;;6.07;84.26;101560.38;1760825;81;21207;-57
2021/10/28 06:37:19;;;;;;;51.90;33.55;;;;;;;6.17;84.12;101551.53;1763118;79;21199;-56
2021/10/28 06:40:28;;;;;;;50.28;34.35;;;;;;;6.24;84.07;101548.69;1739663;82;21212;-58
2021/10/28 06:43:34;;;;;;;51.53;33.13;;;;;;;6.33;84.00;101552.07;1739520;82;21487;-58
2021/10/28 06:46:40;;;;;;;56.85;35.80;;;;;;;6.40;83.97;101544.66;1739571;82;21236;-56
2021/10/28 06:49:45;;;;;;;50.67;35.55;;;;;;;6.51;83.94;101546.03;1764304;81;21271;-57
2021/10/28 06:56:56;;;;;;;54.27;33.45;;;;;;;6.70;83.93;101546.30;1739012;82;21189;-57
2021/10/28 07:02:43;;;;;;;57.27;34.08;;;;;;;6.92;83.68;101525.02;1763556;81;21256;-57
2021/10/28 07:05:43;;;;;;;53.23;33.00;;;;;;;6.99;83.54;101518.94;1769453;81;21777;-57
2021/10/28 07:09:03;;;;;;;51.05;32.55;;;;;;;7.09;83.56;101536.27;1770559;80;21252;-56
2021/10/28 07:15:49;;;;;;;48.60;31.65;;;;;;;7.39;83.21;101534.22;1769429;81;21283;-57
2021/10/28 07:18:52;;;;;;;;;;;;;;;7.61;83.09;101534.19;1772324;80;21236;-57
2021/10/28 07:22:16;;;;;;;50.38;30.52;;;;;;;7.89;82.89;101525.39;1766370;81;20234;-58
2021/10/28 07:25:19;;;;;;;52.35;32.08;;;;;;;8.13;82.61;101511.51;1769053;80;21177;-57
2021/10/28 07:28:26;;;;;;;54.73;32.93;;;;;;;8.37;82.15;101495.77;1769818;80;21185;-58
2021/10/28 08:05:37;;;;;;;32.13;19.80;;;;;;;10.11;75.63;101459.01;1760507;81;21236;-58
2021/10/28 08:15:13;;;;;;;26.82;17.20;;;;;;;10.61;71.58;101460.09;1763044;81;21716;-56
2021/10/28 08:21:41;;;;;;;28.38;17.55;;;;;;;10.81;70.07;101457.13;1752212;80;22050;-57
2021/10/28 08:31:11;;;;;;;25.60;16.67;;;;;;;11.17;68.35;101443.87;1767176;81;21357;-57
2021/10/28 08:34:21;;;;;;;25.52;16.85;;;;;;;11.31;67.55;101443.84;1767872;80;21219;-58
2021/10/28 08:37:41;;;;;;;25.80;17.12;;;;;;;11.40;66.82;101434.17;1761417;81;21717;-57
2021/10/28 08:40:39;;;;;;;23.65;17.00;;;;;;;11.48;66.46;101423.82;1742804;80;21212;-60
2021/10/28 08:43:46;;;;;;;30.62;18.10;;;;;;;11.57;66.22;101422.88;1765676;80;21209;-59
2021/10/28 08:46:54;;;;;;;31.35;19.67;;;;;;;11.67;65.82;101423.70;1769197;81;21326;-57
2021/10/28 08:50:08;;;;;;;32.80;20.55;;;;;;;11.77;65.41;101421.70;1765517;81;21592;-57
2021/10/28 08:57:21;;;;;;;30.82;19.85;;;;;;;12.03;65.10;101422.63;1752018;81;21821;-57
2021/10/28 09:24:42;;;;;;;28.00;17.62;;;;;;;12.56;63.17;101401.33;1739680;82;21335;-57
2021/10/28 09:27:12;;;;;;;25.77;18.07;;;;;;;12.61;63.21;101401.70;1740771;79;21212;-57
2021/10/28 09:30:28;;;;;;;31.62;19.42;;;;;;;12.67;62.96;101388.69;1778881;79;21256;-58
2021/10/28 09:33:36;;;;;;;30.80;19.10;;;;;;;12.70;62.74;101393.84;1760651;81;21187;-57
2021/10/28 09:46:52;;;;;;;28.65;19.10;;;;;;;12.64;62.67;101379.40;1761719;81;21320;-58
2021/10/28 09:50:19;;;;;;;33.48;20.12;;;;;;;12.60;62.83;101364.29;1746148;81;21397;-58
2021/10/28 09:53:31;;;;;;;28.17;18.75;;;;;;;12.61;63.00;101370.62;1760739;81;21161;-56
2021/10/28 10:00:09;;;;;;;29.57;19.60;;;;;;;12.67;63.27;101368.08;1771688;80;21817;-57
2021/10/28 10:03:22;;;;;;;35.60;19.23;;;;;;;12.77;63.20;101363.82;1771019;80;21461;-57
2021/10/28 10:06:26;;;;;;;31.15;20.45;;;;;;;12.81;63.07;101363.31;1755072;81;21366;-58
2021/10/28 10:09:30;;;;;;;32.80;19.30;;;;;;;12.87;63.16;101350.81;1741077;82;21375;-59
2021/10/28 10:12:35;;;;;;;33.40;21.40;;;;;;;12.94;63.14;101362.34;1741589;82;21334;-59
2021/10/28 10:15:41;;;;;;;38.90;21.55;;;;;;;13.00;63.10;101356.70;1741173;82;21358;-58
2021/10/28 10:18:48;;;;;;;29.55;20.02;;;;;;;13.06;63.07;101354.18;1752578;81;21192;-57
2021/10/28 10:21:57;;;;;;;33.65;19.42;;;;;;;13.14;62.83;101347.33;1770151;80;21291;-57
2021/10/28 10:25:08;;;;;;;33.80;20.55;;;;;;;13.17;62.75;101335.98;1770442;80;21237;-55
2021/10/28 11:03:36;;;;;;;33.23;20.17;;;;;;;12.79;63.67;101332.92;1762831;81;22008;-54
2021/10/28 12:25:11;;;;;;;38.17;24.07;;;;;;;12.58;65.39;101313.27;1736031;82;21227;-52
2021/10/28 12:52:07;;;;;;;56.95;33.40;;;;;;;12.51;65.90;101301.24;1744805;81;21298;-53
2021/10/28 13:05:47;;;;;;;60.80;36.55;;;;;;;12.47;66.34;101292.47;1752598;81;21506;-53
2021/10/28 13:50:00;;;;;;;60.08;37.33;;;;;;;12.40;67.04;101320.23;1691959;83;21280;-54
2021/10/28 13:53:30;;;;;;;45.78;29.40;;;;;;;12.37;67.11;101317.81;1755202;81;21245;-54
2021/10/28 13:56:30;;;;;;;48.75;30.55;;;;;;;12.34;67.24;101320.89;1763062;80;21204;-54
2021/10/28 14:39:24;;;;;;;75.12;40.10;;;;;;;11.76;69.78;101349.55;1770833;80;21173;-54
2021/10/28 15:03:00;;;;;;;69.17;40.43;;;;;;;11.65;70.66;101365.39;1700546;84;20705;-54
2021/10/28 15:36:18;;;;;;;78.17;43.48;;;;;;;11.59;71.67;101383.81;1697976;83;21236;-54
2021/10/28 15:56:24;;;;;;;93.30;52.33;;;;;;;11.54;72.12;101416.33;1767186;81;21211;-55
2021/10/28 16:22:44;;;;;;;54.08;35.85;;;;;;;11.41;74.96;101441.41;1751917;81;21259;-55
2021/10/28 16:25:53;;;;;;;54.55;35.15;;;;;;;11.39;75.38;101442.55;1762398;81;21219;-54
2021/10/28 16:28:59;;;;;;;54.75;33.98;;;;;;;11.38;75.67;101453.18;1756983;81;21243;-54
2021/10/28 16:32:05;;;;;;;56.70;37.35;;;;;;;11.35;75.74;101450.22;1758414;81;21777;-54
2021/10/28 16:35:14;;;;;;;56.83;38.17;;;;;;;11.35;75.94;101452.12;1756224;81;21215;-55
2021/10/28 16:38:22;;;;;;;62.05;37.90;;;;;;;11.34;76.03;101462.22;1734764;82;21208;-55
2021/10/28 16:41:28;;;;;;;55.38;37.20;;;;;;;11.35;76.20;101461.72;1750606;81;21594;-55
2021/10/28 16:44:35;;;;;;;57.90;38.95;;;;;;;11.34;76.53;101462.22;1736153;82;21544;-53
2021/10/28 16:47:40;;;;;;;66.47;40.33;;;;;;;11.34;76.77;101462.71;1737796;80;21216;-54
2021/10/28 16:50:45;;;;;;;55.75;37.73;;;;;;;11.35;77.04;101467.20;1739600;82;21220;-54
2021/10/28 16:53:51;;;;;;;57.73;37.70;;;;;;;11.34;77.26;101466.33;1740311;82;21209;-54
2021/10/28 16:57:02;;;;;;;57.33;38.83;;;;;;;11.33;77.47;101461.00;1739976;82;21193;-54
2021/10/28 17:00:06;;;;;;;58.00;38.95;;;;;;;11.31;77.58;101458.91;1740641;81;21773;-55
2021/10/28 17:03:15;;;;;;;76.77;43.98;;;;;;;11.29;77.64;101459.59;1739672;82;21264;-57
2021/10/28 17:06:21;;;;;;;96.65;49.70;;;;;;;11.30;77.71;101458.57;1739451;82;21702;-54
2021/10/28 17:09:28;;;;;;;120.08;53.80;;;;;;;11.29;77.73;101465.08;1739250;82;21184;-54
2021/10/28 17:12:32;;;;;;;143.22;62.17;;;;;;;11.30;77.78;101455.83;1740680;82;21323;-54
2021/10/28 17:15:39;;;;;;;118.30;56.63;;;;;;;11.30;77.86;101462.69;1740046;81;21197;-54
2021/10/28 17:18:44;;;;;;;95.65;52.90;;;;;;;11.29;77.94;101459.59;1740083;82;21628;-55
2021/10/28 17:21:50;;;;;;;100.38;56.40;;;;;;;11.29;77.99;101456.86;1740856;82;21181;-54
2021/10/28 17:24:55;;;;;;;100.12;54.60;;;;;;;11.30;78.04;101464.05;1741159;82;21252;-54
2021/10/28 17:28:02;;;;;;;91.87;51.35;;;;;;;11.29;78.12;101463.18;1758654;81;21239;-54
2021/10/28 17:31:10;;;;;;;90.62;54.75;;;;;;;11.30;78.28;101461.31;1753989;81;21217;-56
2021/10/28 17:34:16;;;;;;;107.10;56.98;;;;;;;11.29;78.40;101478.79;1745999;81;21180;-53
2021/10/28 17:37:23;;;;;;;106.27;58.40;;;;;;;11.29;78.57;101481.00;1771098;80;21511;-53
2021/10/28 17:40:27;;;;;;;105.58;56.02;;;;;;;11.31;78.68;101478.97;1731010;81;21221;-55
2021/10/28 17:43:35;;;;;;;78.85;46.85;;;;;;;11.32;78.81;101481.22;1730947;82;21783;-54
2021/10/28 17:46:41;;;;;;;85.17;47.10;;;;;;;11.31;78.89;101482.22;1732774;81;21445;-54
2021/10/28 17:49:46;;;;;;;84.83;49.93;;;;;;;11.32;79.05;101475.73;1771359;79;21209;-56
2021/10/28 17:52:53;;;;;;;79.72;50.83;;;;;;;11.32;79.17;101475.73;1770081;81;21805;-55
2021/10/28 17:55:59;;;;;;;126.60;66.62;;;;;;;11.33;79.27;101470.59;1770889;80;21216;-54
2021/10/28 17:59:05;;;;;;;124.60;74.77;;;;;;;11.32;79.33;101471.63;1770900;80;21200;-54
2021/10/28 18:02:11;;;;;;;136.25;88.17;;;;;;;11.34;79.38;101475.05;1770976;80;21355;-55
2021/10/28 18:05:18;;;;;;;99.30;61.88;;;;;;;11.32;79.44;101477.95;1744035;80;21350;-53
2021/10/28 18:08:23;;;;;;;112.17;67.05;;;;;;;11.33;79.53;101474.70;1730787;82;21224;-55
2021/10/28 18:11:28;;;;;;;119.22;70.05;;;;;;;11.32;79.59;101473.83;1731936;82;21228;-54
2021/10/28 18:14:35;;;;;;;152.47;87.65;;;;;;;11.32;79.62;101477.95;1731284;82;21247;-54
2021/10/28 18:17:42;;;;;;;135.55;76.50;;;;;;;11.32;79.66;101481.22;1737816;80;21346;-54
2021/10/28 18:20:48;;;;;;;115.62;66.28;;;;;;;11.32;79.71;101490.81;1731273;83;21244;-54
2021/10/28 18:23:57;;;;;;;121.82;71.60;;;;;;;11.31;79.77;101494.05;1732006;83;21362;-54
2021/10/28 18:27:03;;;;;;;107.10;61.63;;;;;;;11.31;79.82;101493.18;1732015;83;21370;-55
2021/10/28 18:30:11;;;;;;;114.70;63.28;;;;;;;11.30;79.86;101501.94;1732211;83;21252;-54
2021/10/28 18:33:17;;;;;;;90.83;52.05;;;;;;;11.31;79.89;101502.28;1731378;83;21361;-53
2021/10/28 18:36:23;;;;;;;79.50;49.70;;;;;;;11.30;79.96;101512.03;1731558;83;21366;-54
2021/10/28 18:39:29;;;;;;;104.53;57.27;;;;;;;11.30;80.04;101509.28;1758972;81;21499;-54
2021/10/28 18:42:35;;;;;;;96.63;54.85;;;;;;;11.29;80.04;101512.52;1770653;80;21185;-53
2021/10/28 18:45:42;;;;;;;96.32;55.25;;;;;;;11.30;80.04;101506.05;1770934;81;21414;-54
2021/10/28 18:48:49;;;;;;;101.58;58.48;;;;;;;11.31;80.02;101510.50;1771232;81;21709;-54
2021/10/28 18:51:56;;;;;;;108.00;57.93;;;;;;;11.30;80.03;101508.79;1737185;82;21195;-53
2021/10/28 18:55:03;;;;;;;89.42;52.38;;;;;;;11.29;80.04;101505.67;1721823;82;21859;-54
2021/10/28 18:58:09;;;;;;;98.12;55.80;;;;;;;11.29;80.07;101510.31;1737678;82;21203;-54
2021/10/28 19:01:15;;;;;;;94.32;55.98;;;;;;;11.29;80.08;101519.91;1737631;82;21850;-54
2021/10/28 19:04:22;;;;;;;84.47;51.23;;;;;;;11.29;80.09;101520.75;1737448;82;21212;-53
2021/10/28 19:07:28;;;;;;;104.00;53.33;;;;;;;11.28;80.14;101529.13;1737571;82;21238;-54
2021/10/28 19:10:35;;;;;;;116.75;58.83;;;;;;;11.28;80.14;101530.50;1728730;82;21929;-53
2021/10/28 19:13:42;;;;;;;103.72;53.48;;;;;;;11.28;80.17;101530.50;1702179;82;21228;-54
2021/10/28 19:16:50;;;;;;;106.22;56.53;;;;;;;11.28;80.16;101537.34;1736546;82;21194;-55
2021/10/28 19:19:56;;;;;;;96.87;53.90;;;;;;;11.27;80.17;101542.48;1736433;82;21220;-55
2021/10/28 19:23:01;;;;;;;97.92;55.35;;;;;;;11.26;80.20;101547.09;1737093;82;21181;-55
2021/10/28 19:26:07;;;;;;;108.72;56.53;;;;;;;11.26;80.22;101544.86;1737265;82;21204;-55
2021/10/28 19:29:13;;;;;;;107.58;57.65;;;;;;;11.26;80.23;101553.08;1737509;82;21211;-55
2021/10/28 19:32:21;;;;;;;103.65;55.05;;;;;;;11.25;80.27;101554.98;1736837;82;21307;-55
2021/10/28 19:35:30;;;;;;;105.70;54.08;;;;;;;11.23;80.28;101557.00;1736370;82;21864;-54
2021/10/28 19:41:57;;;;;;;95.40;53.38;;;;;;;11.23;80.33;101560.23;1736914;82;21264;-54
2021/10/28 19:45:07;;;;;;;93.37;54.53;;;;;;;11.20;80.36;101557.80;1737154;82;21211;-55
2021/10/28 19:48:11;;;;;;;98.05;53.15;;;;;;;11.20;80.40;101560.55;1735981;82;21361;-54
2021/10/28 19:51:17;;;;;;;122.07;63.70;;;;;;;11.20;80.49;101566.02;1747971;79;21193;-54
2021/10/28 19:54:22;;;;;;;152.15;74.85;;;;;;;11.17;80.52;101567.70;1770323;80;21621;-54
2021/10/28 19:57:30;;;;;;;114.05;62.80;;;;;;;11.16;80.61;101561.88;1770331;80;21176;-54
2021/10/28 20:00:39;;;;;;;126.42;63.50;;;;;;;11.13;80.64;101564.39;1770762;81;21224;-54
2021/10/28 20:07:09;;;;;;;152.62;81.30;;;;;;;11.12;80.75;101573.64;1770745;80;21690;-54
2021/10/28 20:20:21;;;;;;;184.50;94.70;;;;;;;11.11;80.90;101575.16;1767671;81;21682;-54
2021/10/28 20:23:27;;;;;;;150.78;76.12;;;;;;;11.09;80.90;101573.94;1731191;83;21389;-54
2021/10/28 20:26:32;;;;;;;138.32;73.72;;;;;;;11.08;80.88;101572.72;1765246;81;21288;-54
2021/10/28 20:29:38;;;;;;;122.40;68.17;;;;;;;11.05;80.92;101580.72;1771562;81;21311;-55
2021/10/28 20:32:44;;;;;;;118.05;68.12;;;;;;;11.03;80.98;101582.77;1771876;80;21354;-54
2021/10/28 20:39:12;;;;;;;109.83;62.27;;;;;;;10.96;81.10;101583.49;1736225;82;21185;-54
2021/10/28 20:42:21;;;;;;;110.95;61.95;;;;;;;10.94;81.25;101588.28;1736282;82;21358;-54
2021/10/28 20:45:32;;;;;;;143.70;72.45;;;;;;;10.92;81.31;101591.17;1736136;82;21262;-53
2021/10/28 20:48:41;;;;;;;209.62;98.60;;;;;;;10.91;81.44;101593.53;1741196;82;21228;-53
2021/10/28 20:51:48;;;;;;;219.68;102.45;;;;;;;10.90;81.56;101587.70;1740126;81;21560;-54
2021/10/28 20:54:53;;;;;;;205.20;98.10;;;;;;;10.92;81.63;101584.81;1740079;82;21760;-53
2021/10/28 20:58:01;;;;;;;132.35;63.73;;;;;;;10.93;81.67;101594.25;1740413;82;21252;-53
2021/10/28 21:01:05;;;;;;;98.15;56.92;;;;;;;10.93;81.71;101589.27;1740349;82;21216;-54
2021/10/28 21:04:10;;;;;;;96.22;53.92;;;;;;;10.91;81.72;101591.32;1740345;82;21713;-54
2021/10/28 21:07:17;;;;;;;77.42;44.45;;;;;;;10.91;81.82;101588.05;1740906;82;21347;-53
2021/10/28 21:10:26;;;;;;;60.67;38.50;;;;;;;10.92;81.95;101590.30;1741197;82;21272;-55
2021/10/28 21:13:31;;;;;;;56.80;37.48;;;;;;;10.93;82.11;101587.41;1740669;82;21402;-54
2021/10/28 21:16:37;;;;;;;58.28;36.93;;;;;;;10.94;82.31;101589.65;1740895;81;21291;-55
2021/10/28 21:19:45;;;;;;;53.78;34.27;;;;;;;10.96;82.51;101588.97;1740694;82;21796;-54
2021/10/28 21:22:55;;;;;;;51.10;34.18;;;;;;;10.98;82.57;101581.47;1740201;82;21283;-53
2021/10/28 21:26:00;;;;;;;53.38;35.25;;;;;;;10.99;82.62;101582.70;1740385;82;21295;-53
2021/10/28 21:29:06;;;;;;;46.98;33.50;;;;;;;10.99;82.69;101579.95;1740711;82;21333;-54
2021/10/28 21:32:12;;;;;;;52.03;33.18;;;;;;;10.99;82.74;101584.59;1740556;82;21378;-53
2021/10/28 21:35:18;;;;;;;49.27;32.70;;;;;;;10.94;82.71;101584.17;1740694;82;21454;-53
2021/10/28 21:38:24;;;;;;;46.85;33.48;;;;;;;10.85;82.79;101586.41;1740731;82;21189;-53
2021/10/28 21:41:31;;;;;;;48.80;33.63;;;;;;;10.74;82.94;101595.67;1758043;81;21165;-53
2021/10/28 21:44:38;;;;;;;49.58;33.92;;;;;;;10.63;83.12;101594.97;1766714;80;21630;-53
2021/10/28 21:47:50;;;;;;;48.48;34.30;;;;;;;10.50;83.33;101588.42;1770717;80;21260;-54
2021/10/28 21:51:03;;;;;;;54.20;34.13;;;;;;;10.39;83.63;101596.30;1771283;80;21205;-52
2021/10/28 21:54:08;;;;;;;50.30;33.25;;;;;;;10.29;83.91;101602.80;1770824;80;21229;-54
2021/10/28 21:57:25;;;;;;;51.42;34.33;;;;;;;10.18;84.23;101605.16;1771051;80;21209;-54
2021/10/28 22:24:48;;;;;;;57.13;35.25;;;;;;;9.43;86.64;101608.09;1771843;80;21847;-53
2021/10/28 22:27:36;;;;;;;59.00;35.95;;;;;;;9.38;87.00;101610.38;1771226;80;21240;-53
2021/10/28 22:30:42;;;;;;;51.68;34.03;;;;;;;9.33;87.27;101609.91;1771830;80;21307;-53
2021/10/28 22:33:51;;;;;;;52.23;35.40;;;;;;;9.27;87.58;101613.20;1771279;81;21382;-52
2021/10/28 22:37:20;;;;;;;54.70;35.30;;;;;;;9.24;87.88;101617.58;1771742;80;21204;-54
2021/10/28 22:40:22;;;;;;;52.65;34.70;;;;;;;9.21;88.21;101614.25;1771487;80;21820;-53
2021/10/28 22:43:28;;;;;;;56.28;36.00;;;;;;;9.16;88.42;101614.67;1762772;80;21158;-54
2021/10/28 22:46:35;;;;;;;57.98;36.90;;;;;;;9.11;88.67;101622.40;1771907;80;21343;-54
2021/10/28 22:49:42;;;;;;;53.45;36.58;;;;;;;9.07;88.97;101617.70;1771237;81;21177;-53
2021/10/28 22:52:48;;;;;;;54.67;36.95;;;;;;;9.04;89.23;101612.52;1764847;80;21358;-53
2021/10/28 22:55:55;;;;;;;51.40;34.88;;;;;;;9.01;89.49;101611.91;1770876;79;21255;-54